Terminal Aerodrome Forecast
Issued by NWS Newport/Morehead City, NC

Home | Current Version | Previous Version | Graphics & Text | Print | Product List | Glossary On
Versions: 1 2 3 4 5 6 7 8 9 10 11 12 13
000
FTUS42 KMHX 281700
TAFEWN
TAF
KEWN 281729Z 2818/2918 VRB06KT P6SM SKC
     FM290000 20004KT P6SM SCT050
     FM290800 VRB02KT P6SM SCT020 BKN050
     FM291300 05004KT P6SM SCT035=

USA.gov is the U.S. government's official web portal to all federal, state and local government web resources and services.